Terminal Aerodrome Forecast
Issued by NWS Jacksonville, FL

Home | Current Version | Previous Version | Text Only | Print | Product List | Glossary On
Versions: 1 2 3 4 5 6 7 8 9 10 11 12 13 14 15 16 17 18 19 20 21 22 23 24 25 26 27 28 29 30 31
000
FTUS42 KJAX 281400 AAA
TAFSSI
TAF AMD
KSSI 281400Z 2814/2912 08008KT 5SM -SHRA SCT025 OVC050
     FM281600 07013G21KT P6SM VCSH SCT030 BKN060 OVC200
     FM290200 08010G15KT P6SM VCSH SCT020 SCT060 BKN200=

USA.gov is the U.S. government's official web portal to all federal, state and local government web resources and services.